createdAt,value
2018-07-28T00:00:17.392Z,29.02
2018-07-28T00:02:45.145Z,28.96
2018-07-28T00:05:12.705Z,29.00
2018-07-28T00:07:40.144Z,28.88
2018-07-28T00:10:09.470Z,28.94
2018-07-28T00:12:36.926Z,28.96
2018-07-28T00:15:07.001Z,29.00
2018-07-28T00:17:34.510Z,28.97
2018-07-28T00:20:02.074Z,28.91
2018-07-28T00:22:29.602Z,28.92
2018-07-28T00:24:57.066Z,29.01
2018-07-28T00:27:24.534Z,29.07
2018-07-28T00:29:51.965Z,29.02
2018-07-28T00:32:19.444Z,28.94
2018-07-28T00:34:46.894Z,28.97
2018-07-28T00:37:14.347Z,28.94
2018-07-28T00:39:41.796Z,28.92
2018-07-28T00:42:09.276Z,28.91
2018-07-28T00:44:36.716Z,28.84
2018-07-28T00:47:04.232Z,28.82
2018-07-28T00:49:31.654Z,28.82
2018-07-28T00:51:59.113Z,28.88
2018-07-28T00:54:26.515Z,28.86
2018-07-28T00:56:53.994Z,28.81
2018-07-28T00:59:21.501Z,28.84
2018-07-28T01:01:48.925Z,28.77
2018-07-28T01:04:16.559Z,28.79
2018-07-28T01:06:44.339Z,28.85
2018-07-28T01:09:11.693Z,28.74
2018-07-28T01:11:39.194Z,28.66
2018-07-28T01:14:06.661Z,28.71
2018-07-28T01:16:34.094Z,28.77
2018-07-28T01:19:01.542Z,28.79
2018-07-28T01:21:28.977Z,28.64
2018-07-28T01:23:56.444Z,28.64
2018-07-28T01:26:23.949Z,28.66
2018-07-28T01:28:51.356Z,28.71
2018-07-28T01:31:18.800Z,28.67
2018-07-28T01:33:46.290Z,28.61
2018-07-28T01:36:13.737Z,28.63
2018-07-28T01:38:41.201Z,28.54
2018-07-28T01:41:08.685Z,28.58
2018-07-28T01:43:36.107Z,28.60
2018-07-28T01:46:03.546Z,28.51
2018-07-28T01:48:31.012Z,28.53
2018-07-28T01:50:58.489Z,28.55
2018-07-28T01:53:25.914Z,28.47
2018-07-28T01:55:53.394Z,28.55
2018-07-28T01:58:20.860Z,28.52
2018-07-28T02:00:48.257Z,28.48
2018-07-28T02:03:15.718Z,28.49
2018-07-28T02:05:43.182Z,28.46
2018-07-28T02:08:10.623Z,28.44
2018-07-28T02:10:38.091Z,28.47
2018-07-28T02:13:05.571Z,28.41
2018-07-28T02:15:33.005Z,28.43
2018-07-28T02:18:00.476Z,28.37
2018-07-28T02:20:27.913Z,28.40
2018-07-28T02:22:55.371Z,28.38
2018-07-28T02:25:22.840Z,28.42
2018-07-28T02:27:50.314Z,28.45
2018-07-28T02:30:17.739Z,28.39
2018-07-28T02:32:45.210Z,28.35
2018-07-28T02:35:12.650Z,28.38
2018-07-28T02:37:40.123Z,28.40
2018-07-28T02:40:07.585Z,28.33
2018-07-28T02:42:35.036Z,28.29
2018-07-28T02:45:02.508Z,28.26
2018-07-28T02:47:29.951Z,28.29
2018-07-28T02:49:57.393Z,28.33
2018-07-28T02:52:24.863Z,28.25
2018-07-28T02:54:52.310Z,28.22
2018-07-28T02:57:19.796Z,28.19
2018-07-28T02:59:47.262Z,28.18
2018-07-28T03:02:14.724Z,28.20
2018-07-28T03:04:42.131Z,28.18
2018-07-28T03:07:09.651Z,28.15
2018-07-28T03:09:37.155Z,28.20
2018-07-28T03:12:04.502Z,28.22
2018-07-28T03:14:32.031Z,28.20
2018-07-28T03:16:59.446Z,28.15
2018-07-28T03:19:26.879Z,28.14
2018-07-28T03:21:54.366Z,28.16
2018-07-28T03:24:21.795Z,28.20
2018-07-28T03:26:49.277Z,28.14
2018-07-28T03:29:16.730Z,28.17
2018-07-28T03:31:44.202Z,28.15
2018-07-28T03:34:11.709Z,28.15
2018-07-28T03:36:39.082Z,28.13
2018-07-28T03:39:07.574Z,28.13
2018-07-28T03:41:35.031Z,28.08
2018-07-28T03:44:02.537Z,28.10
2018-07-28T03:46:29.939Z,28.11
2018-07-28T03:48:57.427Z,28.09
2018-07-28T03:51:24.872Z,28.13
2018-07-28T03:53:52.349Z,28.12
2018-07-28T03:56:19.774Z,28.03
2018-07-28T03:58:47.230Z,28.10
2018-07-28T04:01:14.694Z,28.09
2018-07-28T04:03:42.158Z,28.00
2018-07-28T04:06:09.638Z,28.10
2018-07-28T04:08:37.074Z,28.15
2018-07-28T04:11:04.534Z,28.05
2018-07-28T04:13:31.970Z,27.98
2018-07-28T04:15:59.426Z,28.00
2018-07-28T04:18:26.907Z,28.02
2018-07-28T04:20:54.361Z,28.03
2018-07-28T04:23:21.781Z,27.95
2018-07-28T04:25:49.249Z,28.00
2018-07-28T04:28:16.741Z,28.04
2018-07-28T04:30:44.181Z,28.00
2018-07-28T04:33:11.622Z,27.97
2018-07-28T04:35:39.119Z,27.96
2018-07-28T04:38:06.605Z,28.00
2018-07-28T04:40:34.026Z,28.01
2018-07-28T04:43:01.479Z,28.02
2018-07-28T04:45:28.915Z,27.90
2018-07-28T04:47:56.405Z,28.01
2018-07-28T04:50:23.835Z,28.03
2018-07-28T04:52:51.314Z,27.99
2018-07-28T04:55:18.746Z,27.95
2018-07-28T04:57:46.215Z,27.97
2018-07-28T05:00:13.669Z,27.93
2018-07-28T05:02:41.146Z,27.93
2018-07-28T05:05:08.559Z,27.96
2018-07-28T05:07:36.143Z,27.88
2018-07-28T05:10:03.845Z,27.92
2018-07-28T05:12:31.406Z,27.90
2018-07-28T05:14:59.214Z,27.90
2018-07-28T05:17:26.842Z,27.88
2018-07-28T05:19:54.333Z,27.92
2018-07-28T05:22:21.790Z,27.87
2018-07-28T05:24:49.258Z,27.91
2018-07-28T05:27:16.703Z,27.90
2018-07-28T05:29:44.286Z,28.00
2018-07-28T05:32:11.640Z,27.92
2018-07-28T05:34:39.082Z,27.95
2018-07-28T05:37:06.576Z,27.98
2018-07-28T05:39:34.051Z,28.06
2018-07-28T05:42:01.484Z,28.13
2018-07-28T05:44:28.904Z,28.01
2018-07-28T05:46:56.390Z,28.06
2018-07-28T05:49:23.838Z,28.03
2018-07-28T05:51:51.339Z,27.95
2018-07-28T05:54:18.762Z,27.95
2018-07-28T05:56:46.208Z,27.98
2018-07-28T05:59:13.714Z,28.02
2018-07-28T06:01:41.106Z,28.08
2018-07-28T06:04:08.622Z,28.01
2018-07-28T06:06:36.282Z,28.02
2018-07-28T06:09:05.680Z,28.01
2018-07-28T06:11:33.018Z,28.07
2018-07-28T06:14:00.479Z,28.08
2018-07-28T06:16:27.913Z,28.07
2018-07-28T06:18:55.350Z,28.18
2018-07-28T06:21:22.846Z,28.18
2018-07-28T06:23:50.377Z,28.25
2018-07-28T06:26:17.766Z,28.18
2018-07-28T06:28:45.909Z,28.25
2018-07-28T06:31:13.297Z,28.24
2018-07-28T06:33:40.752Z,28.14
2018-07-28T06:36:08.683Z,28.05
2018-07-28T06:38:36.178Z,28.08
2018-07-28T06:41:03.562Z,28.08
2018-07-28T06:43:30.959Z,28.12
2018-07-28T06:45:58.449Z,28.08
2018-07-28T06:48:25.867Z,28.12
2018-07-28T06:50:53.325Z,28.21
2018-07-28T06:53:20.801Z,28.26
2018-07-28T06:55:48.237Z,28.30
2018-07-28T06:58:15.743Z,28.26
2018-07-28T07:00:43.177Z,28.19
2018-07-28T07:03:10.682Z,28.14
2018-07-28T07:05:38.082Z,28.15
2018-07-28T07:08:05.530Z,28.16
2018-07-28T07:10:33.006Z,28.15
2018-07-28T07:13:00.449Z,28.15
2018-07-28T07:15:27.905Z,28.17
2018-07-28T07:17:55.366Z,28.19
2018-07-28T07:20:22.687Z,28.21
2018-07-28T07:22:50.053Z,28.15
2018-07-28T07:25:17.338Z,28.20
2018-07-28T07:27:44.648Z,28.19
2018-07-28T07:30:11.930Z,28.20
2018-07-28T07:32:39.290Z,28.20
2018-07-28T07:35:06.607Z,28.18
2018-07-28T07:37:33.921Z,28.19
2018-07-28T07:40:01.227Z,28.24
2018-07-28T07:42:28.629Z,28.22
2018-07-28T07:44:55.928Z,28.22
2018-07-28T07:47:23.320Z,28.22
2018-07-28T07:49:50.580Z,28.22
2018-07-28T07:52:18.343Z,28.17
2018-07-28T07:54:45.669Z,28.18
2018-07-28T07:57:12.978Z,28.18
2018-07-28T07:59:40.273Z,28.22
2018-07-28T08:02:07.785Z,28.19
2018-07-28T08:04:35.086Z,28.20
2018-07-28T08:07:02.414Z,28.24
2018-07-28T08:09:29.753Z,28.19
2018-07-28T08:11:57.077Z,28.21
2018-07-28T08:14:24.378Z,28.23
2018-07-28T08:16:51.701Z,28.25
2018-07-28T08:19:20.004Z,28.22
2018-07-28T08:21:47.324Z,28.24
2018-07-28T08:24:14.641Z,28.34
2018-07-28T08:26:42.176Z,28.27
2018-07-28T08:29:09.571Z,28.30
2018-07-28T08:31:37.033Z,28.12
2018-07-28T08:34:04.645Z,28.09
2018-07-28T08:36:32.153Z,27.55
2018-07-28T08:38:59.629Z,27.54
2018-07-28T08:41:27.100Z,27.58
2018-07-28T08:43:54.525Z,27.77
2018-07-28T08:46:22.003Z,27.53
2018-07-28T08:48:49.457Z,27.47
2018-07-28T08:51:16.922Z,27.76
2018-07-28T08:53:44.561Z,27.79
2018-07-28T08:56:12.014Z,27.82
2018-07-28T08:58:39.502Z,27.70
2018-07-28T09:01:06.953Z,27.57
2018-07-28T09:03:34.431Z,27.61
2018-07-28T09:06:01.882Z,27.42
2018-07-28T09:08:29.317Z,27.61
2018-07-28T09:10:56.825Z,27.43
2018-07-28T09:13:24.214Z,27.39
2018-07-28T09:15:51.687Z,27.43
2018-07-28T09:18:19.145Z,27.17
2018-07-28T09:20:46.617Z,27.30
2018-07-28T09:23:14.056Z,27.10
2018-07-28T09:25:41.525Z,27.32
2018-07-28T09:28:08.974Z,27.29
2018-07-28T09:30:36.537Z,27.29
2018-07-28T09:33:03.970Z,27.20
2018-07-28T09:35:31.321Z,27.24
2018-07-28T09:37:58.802Z,27.19
2018-07-28T09:40:26.242Z,27.09
2018-07-28T09:42:53.701Z,27.13
2018-07-28T09:45:21.214Z,27.28
2018-07-28T09:47:48.605Z,27.28
2018-07-28T09:50:15.926Z,27.35
2018-07-28T09:52:43.242Z,27.39
2018-07-28T09:55:10.578Z,27.40
2018-07-28T09:57:38.298Z,27.48
2018-07-28T10:00:06.632Z,27.49
2018-07-28T10:02:33.975Z,27.52
2018-07-28T10:05:01.322Z,27.54
2018-07-28T10:07:28.649Z,27.58
2018-07-28T10:09:55.966Z,27.60
2018-07-28T10:12:23.382Z,27.61
2018-07-28T10:14:50.714Z,27.64
2018-07-28T10:17:18.042Z,27.67
2018-07-28T10:19:45.361Z,27.66
2018-07-28T10:22:12.698Z,27.67
2018-07-28T10:24:40.074Z,27.69
2018-07-28T10:27:07.381Z,27.72
2018-07-28T10:29:34.741Z,27.70
2018-07-28T10:32:02.080Z,27.72
2018-07-28T10:34:29.410Z,27.73
2018-07-28T10:36:56.739Z,27.79
2018-07-28T10:39:24.070Z,27.77
2018-07-28T10:41:51.405Z,27.79
2018-07-28T10:44:18.729Z,27.78
2018-07-28T10:46:46.305Z,27.81
2018-07-28T10:49:13.658Z,27.81
2018-07-28T10:51:40.982Z,27.81
2018-07-28T10:54:08.313Z,27.81
2018-07-28T10:56:35.625Z,27.83
2018-07-28T10:59:03.602Z,27.87
2018-07-28T11:01:30.933Z,27.88
2018-07-28T11:03:58.291Z,27.87
2018-07-28T11:06:25.601Z,27.87
2018-07-28T11:08:52.933Z,27.88
2018-07-28T11:11:20.490Z,27.88
2018-07-28T11:13:47.853Z,27.88
2018-07-28T11:16:15.166Z,27.94
2018-07-28T11:18:43.509Z,27.94
2018-07-28T11:21:11.013Z,27.93
2018-07-28T11:23:55.082Z,27.94
2018-07-28T11:26:22.478Z,27.92
2018-07-28T11:28:49.764Z,27.92
2018-07-28T11:31:28.410Z,27.96
2018-07-28T11:34:07.012Z,27.96
2018-07-28T11:36:45.690Z,27.95
2018-07-28T11:39:24.290Z,27.93
2018-07-28T11:42:02.838Z,27.99
2018-07-28T11:44:42.266Z,27.96
2018-07-28T11:47:09.586Z,27.97
2018-07-28T11:49:37.474Z,27.95
2018-07-28T11:52:05.866Z,27.96
2018-07-28T11:54:33.213Z,27.97
2018-07-28T11:57:00.645Z,27.97
2018-07-28T11:59:27.968Z,27.97
2018-07-28T12:01:55.492Z,27.96
2018-07-28T12:04:22.826Z,27.99
2018-07-28T12:06:50.178Z,28.00
2018-07-28T12:09:17.515Z,27.98
2018-07-28T12:11:46.084Z,27.99
2018-07-28T12:14:13.420Z,28.00
2018-07-28T12:16:40.750Z,28.07
2018-07-28T12:19:09.114Z,28.09
2018-07-28T12:21:36.439Z,28.10
2018-07-28T12:24:05.194Z,28.11
2018-07-28T12:26:32.476Z,28.12
2018-07-28T12:29:00.052Z,28.08
2018-07-28T12:31:28.417Z,28.11
2018-07-28T12:33:55.734Z,28.12
2018-07-28T12:36:23.176Z,28.15
2018-07-28T12:38:50.698Z,28.13
2018-07-28T12:41:18.249Z,28.38
2018-07-28T12:43:45.735Z,28.40
2018-07-28T12:46:13.206Z,28.36
2018-07-28T12:48:40.659Z,28.39
2018-07-28T12:51:08.135Z,28.40
2018-07-28T12:53:35.558Z,28.43
2018-07-28T12:56:03.082Z,28.51
2018-07-28T12:58:30.577Z,28.56
2018-07-28T13:00:58.058Z,28.62
2018-07-28T13:03:25.585Z,28.73
2018-07-28T13:05:52.996Z,28.76
2018-07-28T13:08:20.461Z,28.88
2018-07-28T13:10:47.890Z,28.84
2018-07-28T13:13:15.369Z,28.65
2018-07-28T13:15:42.782Z,28.81
2018-07-28T13:18:10.329Z,28.81
2018-07-28T13:20:37.730Z,28.73
2018-07-28T13:23:05.158Z,28.84
2018-07-28T13:25:32.680Z,28.93
2018-07-28T13:28:00.097Z,28.77
2018-07-28T13:30:27.592Z,28.79
2018-07-28T13:32:55.049Z,28.89
2018-07-28T13:35:22.477Z,28.96
2018-07-28T13:37:49.941Z,28.90
2018-07-28T13:40:17.410Z,28.84
2018-07-28T13:42:44.930Z,29.00
2018-07-28T13:45:12.258Z,28.98
2018-07-28T13:47:39.741Z,29.04
2018-07-28T13:50:07.204Z,29.00
2018-07-28T13:52:34.669Z,29.11
2018-07-28T13:55:02.158Z,29.07
2018-07-28T13:57:29.808Z,28.99
2018-07-28T13:59:57.242Z,28.97
2018-07-28T14:02:24.722Z,29.06
2018-07-28T14:04:52.146Z,29.12
2018-07-28T14:07:19.597Z,29.14
2018-07-28T14:09:47.060Z,29.07
2018-07-28T14:12:15.560Z,28.98
2018-07-28T14:14:43.074Z,28.92
2018-07-28T14:17:10.446Z,28.99
2018-07-28T14:19:37.929Z,28.97
2018-07-28T14:22:05.401Z,28.89
2018-07-28T14:24:32.808Z,28.82
2018-07-28T14:27:00.299Z,28.84
2018-07-28T14:29:28.755Z,28.79
2018-07-28T14:31:56.230Z,28.88
2018-07-28T14:34:23.710Z,28.80
2018-07-28T14:36:51.154Z,28.70
2018-07-28T14:39:18.624Z,28.68
2018-07-28T14:41:46.136Z,28.68
2018-07-28T14:44:13.491Z,28.72
2018-07-28T14:46:40.966Z,28.59
2018-07-28T14:49:09.471Z,28.63
2018-07-28T14:51:36.927Z,28.72
2018-07-28T14:54:04.374Z,28.75
2018-07-28T14:56:31.823Z,28.59
2018-07-28T14:58:59.942Z,28.30
2018-07-28T15:01:27.411Z,28.20
2018-07-28T15:04:57.726Z,28.26
2018-07-28T15:07:25.245Z,28.24
2018-07-28T15:09:52.587Z,28.02
2018-07-28T15:12:20.072Z,28.06
2018-07-28T15:14:47.545Z,27.89
2018-07-28T15:17:14.981Z,28.07
2018-07-28T15:19:42.416Z,27.96
2018-07-28T15:22:09.966Z,27.94
2018-07-28T15:24:37.331Z,28.09
2018-07-28T15:27:04.974Z,27.81
2018-07-28T15:29:32.543Z,27.62
2018-07-28T15:32:00.049Z,27.69
2018-07-28T15:34:27.494Z,27.78
2018-07-28T15:36:54.959Z,27.78
2018-07-28T15:39:22.382Z,27.66
2018-07-28T15:41:49.872Z,27.52
2018-07-28T15:44:17.313Z,27.50
2018-07-28T15:46:44.765Z,27.60
2018-07-28T15:49:12.285Z,27.66
2018-07-28T15:51:39.684Z,27.53
2018-07-28T15:54:07.150Z,27.55
2018-07-28T15:56:41.007Z,27.48
2018-07-28T15:59:16.094Z,27.43
2018-07-28T16:01:45.393Z,27.32
2018-07-28T16:04:16.787Z,27.19
2018-07-28T16:06:52.414Z,27.03
2018-07-28T16:09:19.930Z,26.87
2018-07-28T16:11:47.299Z,26.98
2018-07-28T16:14:14.742Z,27.01
2018-07-28T16:16:42.202Z,27.09
2018-07-28T16:19:09.795Z,27.02
2018-07-28T16:21:37.430Z,27.04
2018-07-28T16:24:04.829Z,27.00
2018-07-28T16:26:32.242Z,26.70
2018-07-28T16:28:59.691Z,26.78
2018-07-28T16:31:27.488Z,26.89
2018-07-28T16:33:54.916Z,26.98
2018-07-28T16:36:22.397Z,27.14
2018-07-28T16:38:49.870Z,27.12
2018-07-28T16:41:17.381Z,27.01
2018-07-28T16:43:44.717Z,26.87
2018-07-28T16:46:12.197Z,26.65
2018-07-28T16:48:39.753Z,26.56
2018-07-28T16:51:07.112Z,27.01
